首页
METAR-TAF:

METAR-TAF

机场 :

Glencoe Municipal Airport (Vernon Perschau Field)

Glencoe, 明尼蘇達州, 美国

纬度: 44-45-22N, 经度: 094-04-52W, 海拔: 302米

当前天气观测

该预报发布于16分钟前的18:55 UTC
风速19节,风向,有时为23节阵风
温度 16°C
湿度 45%
气压 1014 hPa
能見度: 16.1公里
多云层高于11000英尺

METAR: KGYL 211855Z AUTO 08019G23KT 10SM BKN110 16/04 A2995 RMK AO2 T01580038

时间: 14:11 (19:11 UTC)


TAF: 丢失

超过4000个机场的气象观测和天气预报(METAR&TAF报告)。

可查询的气象台以黄色和红色小点在地图上表示。

将鼠标移到小点上方,可查看气象台名称。

然后点击查看天气观测和预报。

如需切换地图:点击带黑十字的绿色按钮放大地图;点击带横线的绿色按钮缩小地图;或者点击绿色箭头查看邻近地区的地图。


METAR-TAF: